עמוד ראשי
METAR-TAF:

METAR-TAF

שדות תעופה :

Venice, פלורידה, ארצות הברית

קו רוחב: 27-04-18N, קו אורך: 082-26-25W, גובה: 5מטר

תצפית מזג אוויר נוכחית

הדו"ח נערך לפני 17דקות, בשעה 19:35 UTC
רוח 14קשר מכיוון מזרח עם משבים עד 23קשר
טמפרטורת 34 צלסיוס
לחות 50%
לחץ 1014 hPa
ראות: 16.1קילומטר
עננים פזורים בגובה 5000רגל
עננים פזורים בגובה 6000רגל

METAR: KVNC 171935Z AUTO 08014G23KT 10SM SCT050 SCT060 34/22 A2994 RMK AO2

זמן: 15:52 (19:52 UTC)


TAF: חסר

תצפיות ותחזיות מזג אוויר לגבי יותר מ- 4,000 שדות תעופה ברחבי העולם. דוחות METAR ו- TAF.

התחנות הזמינות מסומנות בנקודות צהובות ואדומות על גבי המפה.

העבר את העכבר לנקודה הצבעונית על מנת לראות את שם התחנה.

לאחר מכן, לחץ כדי לראות את תוכן ואת תחזיות מזג האוויר.

כדי לשנות את המפה: לחץ על הכפתורים הירוקים עם הפלוס השחור כדי להתקרב; על הכפתור הירוק עם המקף כדי להתרחק; או בחיצים הירוקים למפות סמוכות.


METAR-TAF: